sensor_id;sensor_type;location;lat;lon;timestamp;P1;durP1;ratioP1;P2;durP2;ratioP2
80653;SDS011;70020;45.524;10.240;2023-06-14T00:00:42;11.90;;;7.72;;
80653;SDS011;70020;45.524;10.240;2023-06-14T00:03:09;11.15;;;7.18;;
80653;SDS011;70020;45.524;10.240;2023-06-14T00:05:36;11.80;;;8.07;;
80653;SDS011;70020;45.524;10.240;2023-06-14T00:08:06;11.20;;;7.28;;
80653;SDS011;70020;45.524;10.240;2023-06-14T00:10:35;8.20;;;6.53;;
80653;SDS011;70020;45.524;10.240;2023-06-14T00:15:35;10.65;;;7.70;;
80653;SDS011;70020;45.524;10.240;2023-06-14T00:20:27;10.63;;;6.35;;
80653;SDS011;70020;45.524;10.240;2023-06-14T00:22:54;9.23;;;7.53;;
80653;SDS011;70020;45.524;10.240;2023-06-14T00:25:23;10.40;;;7.25;;
80653;SDS011;70020;45.524;10.240;2023-06-14T00:27:52;8.60;;;6.85;;
80653;SDS011;70020;45.524;10.240;2023-06-14T00:30:18;11.13;;;7.18;;
80653;SDS011;70020;45.524;10.240;2023-06-14T00:32:45;7.90;;;7.10;;
80653;SDS011;70020;45.524;10.240;2023-06-14T00:35:11;11.00;;;6.57;;
80653;SDS011;70020;45.524;10.240;2023-06-14T00:37:37;9.23;;;6.55;;
80653;SDS011;70020;45.524;10.240;2023-06-14T00:40:03;10.65;;;6.70;;
80653;SDS011;70020;45.524;10.240;2023-06-14T00:42:30;10.57;;;7.72;;
80653;SDS011;70020;45.524;10.240;2023-06-14T00:44:56;8.40;;;6.75;;
80653;SDS011;70020;45.524;10.240;2023-06-14T00:47:26;9.85;;;7.70;;
80653;SDS011;70020;45.524;10.240;2023-06-14T00:49:53;8.98;;;6.78;;
80653;SDS011;70020;45.524;10.240;2023-06-14T00:52:20;8.63;;;6.88;;
80653;SDS011;70020;45.524;10.240;2023-06-14T00:57:12;8.40;;;7.05;;
80653;SDS011;70020;45.524;10.240;2023-06-14T00:59:41;8.43;;;6.10;;
80653;SDS011;70020;45.524;10.240;2023-06-14T01:02:09;7.90;;;6.43;;
80653;SDS011;70020;45.524;10.240;2023-06-14T01:04:35;9.52;;;6.60;;
80653;SDS011;70020;45.524;10.240;2023-06-14T01:07:02;9.63;;;6.70;;
80653;SDS011;70020;45.524;10.240;2023-06-14T01:15:02;7.63;;;6.05;;
80653;SDS011;70020;45.524;10.240;2023-06-14T01:17:29;10.25;;;6.05;;
80653;SDS011;70020;45.524;10.240;2023-06-14T01:20:03;7.07;;;5.72;;
80653;SDS011;70020;45.524;10.240;2023-06-14T01:22:32;10.73;;;6.15;;
80653;SDS011;70020;45.524;10.240;2023-06-14T01:24:58;11.43;;;6.22;;
80653;SDS011;70020;45.524;10.240;2023-06-14T01:27:24;8.65;;;6.05;;
80653;SDS011;70020;45.524;10.240;2023-06-14T01:29:54;9.10;;;6.07;;
80653;SDS011;70020;45.524;10.240;2023-06-14T01:32:23;6.60;;;5.50;;
80653;SDS011;70020;45.524;10.240;2023-06-14T01:34:51;6.93;;;5.20;;
80653;SDS011;70020;45.524;10.240;2023-06-14T01:37:17;11.02;;;6.38;;
80653;SDS011;70020;45.524;10.240;2023-06-14T01:39:44;10.65;;;6.18;;
80653;SDS011;70020;45.524;10.240;2023-06-14T01:42:11;8.75;;;6.63;;
80653;SDS011;70020;45.524;10.240;2023-06-14T01:44:38;7.65;;;6.05;;
80653;SDS011;70020;45.524;10.240;2023-06-14T01:47:04;8.35;;;5.70;;
80653;SDS011;70020;45.524;10.240;2023-06-14T01:49:33;7.25;;;5.88;;
80653;SDS011;70020;45.524;10.240;2023-06-14T01:52:00;7.72;;;5.78;;
80653;SDS011;70020;45.524;10.240;2023-06-14T01:54:25;9.07;;;6.10;;
80653;SDS011;70020;45.524;10.240;2023-06-14T01:56:52;7.68;;;6.22;;
80653;SDS011;70020;45.524;10.240;2023-06-14T02:01:44;7.03;;;5.82;;
80653;SDS011;70020;45.524;10.240;2023-06-14T02:04:11;6.55;;;5.85;;
80653;SDS011;70020;45.524;10.240;2023-06-14T02:06:37;8.07;;;5.75;;
80653;SDS011;70020;45.524;10.240;2023-06-14T02:09:03;8.52;;;5.65;;
80653;SDS011;70020;45.524;10.240;2023-06-14T02:11:29;7.57;;;6.00;;
80653;SDS011;70020;45.524;10.240;2023-06-14T02:13:55;7.05;;;5.80;;
80653;SDS011;70020;45.524;10.240;2023-06-14T02:16:21;8.75;;;5.85;;
80653;SDS011;70020;45.524;10.240;2023-06-14T02:18:47;9.88;;;5.90;;
80653;SDS011;70020;45.524;10.240;2023-06-14T02:21:14;8.73;;;5.90;;
80653;SDS011;70020;45.524;10.240;2023-06-14T02:23:40;8.38;;;5.82;;
80653;SDS011;70020;45.524;10.240;2023-06-14T02:26:06;8.18;;;6.13;;
80653;SDS011;70020;45.524;10.240;2023-06-14T02:28:32;9.18;;;6.00;;
80653;SDS011;70020;45.524;10.240;2023-06-14T02:30:58;7.78;;;5.88;;
80653;SDS011;70020;45.524;10.240;2023-06-14T02:33:23;10.03;;;5.80;;
80653;SDS011;70020;45.524;10.240;2023-06-14T02:35:50;7.40;;;5.70;;
80653;SDS011;70020;45.524;10.240;2023-06-14T02:40:41;9.00;;;5.72;;
80653;SDS011;70020;45.524;10.240;2023-06-14T02:43:07;8.65;;;6.28;;
80653;SDS011;70020;45.524;10.240;2023-06-14T02:47:59;6.82;;;5.97;;
80653;SDS011;70020;45.524;10.240;2023-06-14T02:50:25;9.20;;;6.20;;
80653;SDS011;70020;45.524;10.240;2023-06-14T02:52:51;9.35;;;6.13;;
80653;SDS011;70020;45.524;10.240;2023-06-14T02:55:17;9.98;;;6.13;;
80653;SDS011;70020;45.524;10.240;2023-06-14T02:57:43;9.02;;;6.32;;
80653;SDS011;70020;45.524;10.240;2023-06-14T03:00:09;10.75;;;6.30;;
80653;SDS011;70020;45.524;10.240;2023-06-14T03:02:38;6.78;;;5.75;;
80653;SDS011;70020;45.524;10.240;2023-06-14T03:05:03;8.90;;;6.00;;
80653;SDS011;70020;45.524;10.240;2023-06-14T03:07:31;8.27;;;6.43;;
80653;SDS011;70020;45.524;10.240;2023-06-14T03:12:23;9.10;;;6.05;;
80653;SDS011;70020;45.524;10.240;2023-06-14T03:17:15;9.60;;;6.20;;
80653;SDS011;70020;45.524;10.240;2023-06-14T03:19:42;9.88;;;5.57;;
80653;SDS011;70020;45.524;10.240;2023-06-14T03:24:34;8.95;;;5.50;;
80653;SDS011;70020;45.524;10.240;2023-06-14T03:27:01;8.75;;;5.45;;
80653;SDS011;70020;45.524;10.240;2023-06-14T03:29:28;8.63;;;5.13;;
80653;SDS011;70020;45.524;10.240;2023-06-14T03:32:01;9.23;;;5.85;;
80653;SDS011;70020;45.524;10.240;2023-06-14T03:34:27;6.90;;;5.35;;
80653;SDS011;70020;45.524;10.240;2023-06-14T03:36:53;8.25;;;5.10;;
80653;SDS011;70020;45.524;10.240;2023-06-14T03:39:19;8.88;;;5.28;;
80653;SDS011;70020;45.524;10.240;2023-06-14T03:41:44;8.10;;;5.03;;
80653;SDS011;70020;45.524;10.240;2023-06-14T03:46:36;6.72;;;4.65;;
80653;SDS011;70020;45.524;10.240;2023-06-14T03:49:02;8.25;;;5.00;;
80653;SDS011;70020;45.524;10.240;2023-06-14T03:51:28;7.50;;;5.50;;
80653;SDS011;70020;45.524;10.240;2023-06-14T03:53:55;9.75;;;5.75;;
80653;SDS011;70020;45.524;10.240;2023-06-14T03:56:21;7.30;;;4.57;;
80653;SDS011;70020;45.524;10.240;2023-06-14T03:58:46;6.30;;;5.07;;
80653;SDS011;70020;45.524;10.240;2023-06-14T04:01:12;8.77;;;5.30;;
80653;SDS011;70020;45.524;10.240;2023-06-14T04:03:38;6.30;;;5.18;;
80653;SDS011;70020;45.524;10.240;2023-06-14T04:06:05;7.38;;;5.13;;
80653;SDS011;70020;45.524;10.240;2023-06-14T04:10:57;9.27;;;5.18;;
80653;SDS011;70020;45.524;10.240;2023-06-14T04:13:23;7.93;;;5.20;;
80653;SDS011;70020;45.524;10.240;2023-06-14T04:15:49;7.93;;;5.47;;
80653;SDS011;70020;45.524;10.240;2023-06-14T04:18:15;7.47;;;5.22;;
80653;SDS011;70020;45.524;10.240;2023-06-14T04:20:40;9.48;;;5.32;;
80653;SDS011;70020;45.524;10.240;2023-06-14T04:23:12;7.30;;;5.00;;
80653;SDS011;70020;45.524;10.240;2023-06-14T04:25:44;7.40;;;5.13;;
80653;SDS011;70020;45.524;10.240;2023-06-14T04:28:12;7.57;;;5.28;;
80653;SDS011;70020;45.524;10.240;2023-06-14T04:30:42;7.28;;;4.88;;
80653;SDS011;70020;45.524;10.240;2023-06-14T04:33:08;8.85;;;5.70;;
80653;SDS011;70020;45.524;10.240;2023-06-14T04:35:35;6.55;;;5.30;;
80653;SDS011;70020;45.524;10.240;2023-06-14T04:38:02;7.50;;;5.28;;
80653;SDS011;70020;45.524;10.240;2023-06-14T04:40:30;9.95;;;4.80;;
80653;SDS011;70020;45.524;10.240;2023-06-14T04:42:58;8.02;;;5.22;;
80653;SDS011;70020;45.524;10.240;2023-06-14T04:45:24;7.88;;;5.72;;
80653;SDS011;70020;45.524;10.240;2023-06-14T04:47:58;8.60;;;5.40;;
80653;SDS011;70020;45.524;10.240;2023-06-14T04:50:24;7.43;;;5.68;;
80653;SDS011;70020;45.524;10.240;2023-06-14T04:52:50;7.03;;;4.85;;
80653;SDS011;70020;45.524;10.240;2023-06-14T04:55:16;7.00;;;5.03;;
80653;SDS011;70020;45.524;10.240;2023-06-14T05:00:08;7.00;;;5.25;;
80653;SDS011;70020;45.524;10.240;2023-06-14T05:02:36;6.35;;;5.07;;
80653;SDS011;70020;45.524;10.240;2023-06-14T05:05:02;6.72;;;4.75;;
80653;SDS011;70020;45.524;10.240;2023-06-14T05:07:31;10.20;;;5.30;;
80653;SDS011;70020;45.524;10.240;2023-06-14T05:09:58;8.50;;;4.93;;
80653;SDS011;70020;45.524;10.240;2023-06-14T05:12:24;7.28;;;5.13;;
80653;SDS011;70020;45.524;10.240;2023-06-14T05:14:50;7.25;;;5.30;;
80653;SDS011;70020;45.524;10.240;2023-06-14T05:17:16;8.10;;;5.13;;
80653;SDS011;70020;45.524;10.240;2023-06-14T05:19:42;9.07;;;5.97;;
80653;SDS011;70020;45.524;10.240;2023-06-14T05:22:08;6.43;;;5.25;;
80653;SDS011;70020;45.524;10.240;2023-06-14T05:24:34;9.27;;;4.70;;
80653;SDS011;70020;45.524;10.240;2023-06-14T05:27:00;8.00;;;5.28;;
80653;SDS011;70020;45.524;10.240;2023-06-14T05:29:26;9.63;;;5.05;;
80653;SDS011;70020;45.524;10.240;2023-06-14T05:31:52;8.55;;;5.50;;
80653;SDS011;70020;45.524;10.240;2023-06-14T05:34:18;9.60;;;5.45;;
80653;SDS011;70020;45.524;10.240;2023-06-14T05:36:44;8.68;;;4.65;;
80653;SDS011;70020;45.524;10.240;2023-06-14T05:39:09;6.35;;;4.78;;
80653;SDS011;70020;45.524;10.240;2023-06-14T05:41:35;8.25;;;5.03;;
80653;SDS011;70020;45.524;10.240;2023-06-14T05:44:00;7.05;;;4.70;;
80653;SDS011;70020;45.524;10.240;2023-06-14T05:48:52;8.43;;;4.40;;
80653;SDS011;70020;45.524;10.240;2023-06-14T05:51:18;10.48;;;5.32;;
80653;SDS011;70020;45.524;10.240;2023-06-14T05:53:53;7.70;;;4.80;;
80653;SDS011;70020;45.524;10.240;2023-06-14T05:56:19;5.65;;;4.40;;
80653;SDS011;70020;45.524;10.240;2023-06-14T06:01:10;6.75;;;4.57;;
80653;SDS011;70020;45.524;10.240;2023-06-14T06:06:02;11.63;;;4.60;;
80653;SDS011;70020;45.524;10.240;2023-06-14T06:08:28;7.93;;;4.65;;
80653;SDS011;70020;45.524;10.240;2023-06-14T06:10:55;7.95;;;4.88;;
80653;SDS011;70020;45.524;10.240;2023-06-14T06:13:22;7.40;;;4.65;;
80653;SDS011;70020;45.524;10.240;2023-06-14T06:15:48;8.93;;;5.25;;
80653;SDS011;70020;45.524;10.240;2023-06-14T06:18:13;8.00;;;4.93;;
80653;SDS011;70020;45.524;10.240;2023-06-14T06:23:04;9.68;;;5.43;;
80653;SDS011;70020;45.524;10.240;2023-06-14T06:27:56;9.27;;;5.20;;
80653;SDS011;70020;45.524;10.240;2023-06-14T06:32:48;7.57;;;4.93;;
80653;SDS011;70020;45.524;10.240;2023-06-14T06:35:14;6.32;;;5.00;;
80653;SDS011;70020;45.524;10.240;2023-06-14T06:37:41;8.45;;;5.22;;
80653;SDS011;70020;45.524;10.240;2023-06-14T06:40:07;9.65;;;5.43;;
80653;SDS011;70020;45.524;10.240;2023-06-14T06:44:59;7.32;;;5.07;;
80653;SDS011;70020;45.524;10.240;2023-06-14T06:47:25;6.60;;;5.05;;
80653;SDS011;70020;45.524;10.240;2023-06-14T06:52:16;10.88;;;5.30;;
80653;SDS011;70020;45.524;10.240;2023-06-14T06:57:07;8.65;;;6.03;;
80653;SDS011;70020;45.524;10.240;2023-06-14T07:01:59;9.75;;;5.35;;
80653;SDS011;70020;45.524;10.240;2023-06-14T07:04:25;16.52;;;5.85;;
80653;SDS011;70020;45.524;10.240;2023-06-14T07:06:52;10.50;;;6.53;;
80653;SDS011;70020;45.524;10.240;2023-06-14T07:11:44;8.45;;;6.60;;
80653;SDS011;70020;45.524;10.240;2023-06-14T07:16:36;9.95;;;6.60;;
80653;SDS011;70020;45.524;10.240;2023-06-14T07:19:02;9.95;;;6.40;;
80653;SDS011;70020;45.524;10.240;2023-06-14T07:21:29;9.45;;;7.28;;
80653;SDS011;70020;45.524;10.240;2023-06-14T07:26:20;8.82;;;7.15;;
80653;SDS011;70020;45.524;10.240;2023-06-14T07:28:46;11.30;;;8.13;;
80653;SDS011;70020;45.524;10.240;2023-06-14T07:31:14;15.00;;;8.73;;
80653;SDS011;70020;45.524;10.240;2023-06-14T07:33:44;13.80;;;8.88;;
80653;SDS011;70020;45.524;10.240;2023-06-14T07:36:10;12.25;;;8.27;;
80653;SDS011;70020;45.524;10.240;2023-06-14T07:41:01;13.90;;;8.07;;
80653;SDS011;70020;45.524;10.240;2023-06-14T07:43:27;12.68;;;8.07;;
80653;SDS011;70020;45.524;10.240;2023-06-14T07:48:19;12.23;;;9.55;;
80653;SDS011;70020;45.524;10.240;2023-06-14T07:53:09;10.77;;;8.23;;
80653;SDS011;70020;45.524;10.240;2023-06-14T07:58:02;12.20;;;8.27;;
80653;SDS011;70020;45.524;10.240;2023-06-14T08:00:28;17.13;;;8.88;;
80653;SDS011;70020;45.524;10.240;2023-06-14T08:05:24;16.00;;;10.35;;
80653;SDS011;70020;45.524;10.240;2023-06-14T08:07:53;14.63;;;9.35;;
80653;SDS011;70020;45.524;10.240;2023-06-14T08:10:19;14.30;;;9.43;;
80653;SDS011;70020;45.524;10.240;2023-06-14T08:12:46;16.77;;;10.07;;
80653;SDS011;70020;45.524;10.240;2023-06-14T08:17:37;15.10;;;9.02;;
80653;SDS011;70020;45.524;10.240;2023-06-14T08:22:31;12.00;;;8.95;;
80653;SDS011;70020;45.524;10.240;2023-06-14T08:24:59;14.60;;;8.60;;
80653;SDS011;70020;45.524;10.240;2023-06-14T08:27:26;11.75;;;7.57;;
80653;SDS011;70020;45.524;10.240;2023-06-14T08:32:17;11.50;;;8.02;;
80653;SDS011;70020;45.524;10.240;2023-06-14T08:34:43;14.52;;;7.38;;
80653;SDS011;70020;45.524;10.240;2023-06-14T08:37:09;13.80;;;7.70;;
80653;SDS011;70020;45.524;10.240;2023-06-14T08:39:35;15.88;;;7.03;;
80653;SDS011;70020;45.524;10.240;2023-06-14T08:44:27;9.95;;;6.55;;
80653;SDS011;70020;45.524;10.240;2023-06-14T08:46:54;9.00;;;6.20;;
80653;SDS011;70020;45.524;10.240;2023-06-14T08:49:22;11.13;;;6.63;;
80653;SDS011;70020;45.524;10.240;2023-06-14T08:51:59;10.60;;;6.35;;
80653;SDS011;70020;45.524;10.240;2023-06-14T08:54:29;9.07;;;6.25;;
80653;SDS011;70020;45.524;10.240;2023-06-14T08:57:00;11.68;;;6.75;;
80653;SDS011;70020;45.524;10.240;2023-06-14T08:59:28;11.98;;;6.57;;
80653;SDS011;70020;45.524;10.240;2023-06-14T09:04:20;7.63;;;5.53;;
80653;SDS011;70020;45.524;10.240;2023-06-14T09:06:46;9.13;;;5.18;;
80653;SDS011;70020;45.524;10.240;2023-06-14T09:09:17;7.85;;;4.32;;
80653;SDS011;70020;45.524;10.240;2023-06-14T09:11:48;8.60;;;4.70;;
80653;SDS011;70020;45.524;10.240;2023-06-14T09:14:15;6.82;;;4.47;;
80653;SDS011;70020;45.524;10.240;2023-06-14T09:16:44;7.13;;;4.40;;
80653;SDS011;70020;45.524;10.240;2023-06-14T09:21:49;6.10;;;4.10;;
80653;SDS011;70020;45.524;10.240;2023-06-14T09:24:17;6.47;;;4.30;;
80653;SDS011;70020;45.524;10.240;2023-06-14T09:29:09;6.93;;;4.33;;
80653;SDS011;70020;45.524;10.240;2023-06-14T09:34:02;7.68;;;4.15;;
80653;SDS011;70020;45.524;10.240;2023-06-14T09:36:28;8.35;;;3.97;;
80653;SDS011;70020;45.524;10.240;2023-06-14T09:41:32;5.70;;;4.35;;
80653;SDS011;70020;45.524;10.240;2023-06-14T09:44:01;8.55;;;4.22;;
80653;SDS011;70020;45.524;10.240;2023-06-14T09:46:29;6.50;;;4.15;;
80653;SDS011;70020;45.524;10.240;2023-06-14T09:48:56;5.80;;;4.30;;
80653;SDS011;70020;45.524;10.240;2023-06-14T09:51:22;6.13;;;4.00;;
80653;SDS011;70020;45.524;10.240;2023-06-14T09:53:49;8.95;;;4.20;;
80653;SDS011;70020;45.524;10.240;2023-06-14T09:56:17;7.63;;;3.97;;
80653;SDS011;70020;45.524;10.240;2023-06-14T09:58:55;5.78;;;3.58;;
80653;SDS011;70020;45.524;10.240;2023-06-14T10:01:22;8.15;;;4.38;;
80653;SDS011;70020;45.524;10.240;2023-06-14T10:03:50;6.25;;;4.30;;
80653;SDS011;70020;45.524;10.240;2023-06-14T10:06:20;9.77;;;4.47;;
80653;SDS011;70020;45.524;10.240;2023-06-14T10:08:49;7.07;;;4.10;;
80653;SDS011;70020;45.524;10.240;2023-06-14T10:11:17;7.13;;;3.90;;
80653;SDS011;70020;45.524;10.240;2023-06-14T10:13:44;8.85;;;4.30;;
80653;SDS011;70020;45.524;10.240;2023-06-14T10:16:17;6.25;;;4.50;;
80653;SDS011;70020;45.524;10.240;2023-06-14T10:24:25;6.03;;;4.80;;
80653;SDS011;70020;45.524;10.240;2023-06-14T10:26:57;7.43;;;4.60;;
80653;SDS011;70020;45.524;10.240;2023-06-14T10:29:23;11.45;;;5.15;;
80653;SDS011;70020;45.524;10.240;2023-06-14T10:31:50;9.60;;;5.13;;
80653;SDS011;70020;45.524;10.240;2023-06-14T10:34:26;11.77;;;5.18;;
80653;SDS011;70020;45.524;10.240;2023-06-14T10:37:06;8.68;;;5.28;;
80653;SDS011;70020;45.524;10.240;2023-06-14T10:39:42;6.57;;;4.47;;
80653;SDS011;70020;45.524;10.240;2023-06-14T10:42:11;7.88;;;5.40;;
80653;SDS011;70020;45.524;10.240;2023-06-14T10:44:39;8.88;;;5.13;;
80653;SDS011;70020;45.524;10.240;2023-06-14T10:47:06;13.18;;;5.20;;
80653;SDS011;70020;45.524;10.240;2023-06-14T10:49:49;5.03;;;3.92;;
80653;SDS011;70020;45.524;10.240;2023-06-14T10:52:23;8.05;;;4.60;;
80653;SDS011;70020;45.524;10.240;2023-06-14T10:55:09;6.47;;;4.32;;
80653;SDS011;70020;45.524;10.240;2023-06-14T10:57:55;8.93;;;4.45;;
80653;SDS011;70020;45.524;10.240;2023-06-14T11:00:25;8.85;;;4.55;;
80653;SDS011;70020;45.524;10.240;2023-06-14T11:05:40;6.93;;;4.40;;
80653;SDS011;70020;45.524;10.240;2023-06-14T11:10:39;11.60;;;4.68;;
80653;SDS011;70020;45.524;10.240;2023-06-14T11:13:07;8.15;;;4.28;;
80653;SDS011;70020;45.524;10.240;2023-06-14T11:15:33;10.60;;;4.80;;
80653;SDS011;70020;45.524;10.240;2023-06-14T11:18:01;5.85;;;4.20;;
80653;SDS011;70020;45.524;10.240;2023-06-14T11:20:31;5.97;;;4.15;;
80653;SDS011;70020;45.524;10.240;2023-06-14T11:23:00;5.80;;;4.20;;
80653;SDS011;70020;45.524;10.240;2023-06-14T11:25:28;5.68;;;3.92;;
80653;SDS011;70020;45.524;10.240;2023-06-14T11:27:54;7.32;;;3.97;;
80653;SDS011;70020;45.524;10.240;2023-06-14T11:30:23;8.38;;;4.47;;
80653;SDS011;70020;45.524;10.240;2023-06-14T11:32:50;5.95;;;3.78;;
80653;SDS011;70020;45.524;10.240;2023-06-14T11:35:18;6.10;;;3.80;;
80653;SDS011;70020;45.524;10.240;2023-06-14T11:37:44;8.38;;;3.67;;
80653;SDS011;70020;45.524;10.240;2023-06-14T11:40:10;5.32;;;3.97;;
80653;SDS011;70020;45.524;10.240;2023-06-14T11:42:37;8.82;;;3.80;;
80653;SDS011;70020;45.524;10.240;2023-06-14T11:45:08;8.85;;;3.97;;
80653;SDS011;70020;45.524;10.240;2023-06-14T11:47:35;6.75;;;3.70;;
80653;SDS011;70020;45.524;10.240;2023-06-14T11:50:02;4.43;;;3.30;;
80653;SDS011;70020;45.524;10.240;2023-06-14T11:52:30;8.00;;;4.03;;
80653;SDS011;70020;45.524;10.240;2023-06-14T11:54:56;7.25;;;4.03;;
80653;SDS011;70020;45.524;10.240;2023-06-14T11:57:22;6.07;;;4.03;;
80653;SDS011;70020;45.524;10.240;2023-06-14T11:59:48;8.23;;;3.88;;
80653;SDS011;70020;45.524;10.240;2023-06-14T12:02:14;4.38;;;3.28;;
80653;SDS011;70020;45.524;10.240;2023-06-14T12:04:43;5.82;;;4.13;;
80653;SDS011;70020;45.524;10.240;2023-06-14T12:07:10;6.72;;;3.83;;
80653;SDS011;70020;45.524;10.240;2023-06-14T12:10:26;4.57;;;3.60;;
80653;SDS011;70020;45.524;10.240;2023-06-14T12:12:26;6.97;;;3.53;;
80653;SDS011;70020;45.524;10.240;2023-06-14T12:14:52;5.78;;;3.53;;
80653;SDS011;70020;45.524;10.240;2023-06-14T12:17:20;5.97;;;3.80;;
80653;SDS011;70020;45.524;10.240;2023-06-14T12:19:46;6.78;;;4.00;;
80653;SDS011;70020;45.524;10.240;2023-06-14T12:22:13;9.40;;;3.40;;
80653;SDS011;70020;45.524;10.240;2023-06-14T12:24:42;4.45;;;3.60;;
80653;SDS011;70020;45.524;10.240;2023-06-14T12:27:08;4.90;;;3.47;;
80653;SDS011;70020;45.524;10.240;2023-06-14T12:29:37;7.97;;;3.55;;
80653;SDS011;70020;45.524;10.240;2023-06-14T12:32:03;5.50;;;3.63;;
80653;SDS011;70020;45.524;10.240;2023-06-14T12:34:29;7.85;;;3.47;;
80653;SDS011;70020;45.524;10.240;2023-06-14T12:36:56;6.45;;;3.60;;
80653;SDS011;70020;45.524;10.240;2023-06-14T12:39:22;4.88;;;3.50;;
80653;SDS011;70020;45.524;10.240;2023-06-14T12:41:49;5.47;;;3.28;;
80653;SDS011;70020;45.524;10.240;2023-06-14T12:44:15;6.70;;;3.50;;
80653;SDS011;70020;45.524;10.240;2023-06-14T12:46:41;7.18;;;3.85;;
80653;SDS011;70020;45.524;10.240;2023-06-14T12:49:09;6.53;;;4.40;;
80653;SDS011;70020;45.524;10.240;2023-06-14T12:51:35;6.25;;;4.57;;
80653;SDS011;70020;45.524;10.240;2023-06-14T12:54:03;10.35;;;4.68;;
80653;SDS011;70020;45.524;10.240;2023-06-14T12:56:29;9.32;;;5.50;;
80653;SDS011;70020;45.524;10.240;2023-06-14T12:58:55;5.05;;;3.75;;
80653;SDS011;70020;45.524;10.240;2023-06-14T13:01:20;8.43;;;4.90;;
80653;SDS011;70020;45.524;10.240;2023-06-14T13:03:46;9.07;;;4.35;;
80653;SDS011;70020;45.524;10.240;2023-06-14T13:06:12;5.07;;;3.80;;
80653;SDS011;70020;45.524;10.240;2023-06-14T13:08:38;9.00;;;3.78;;
80653;SDS011;70020;45.524;10.240;2023-06-14T13:11:04;8.07;;;3.65;;
80653;SDS011;70020;45.524;10.240;2023-06-14T13:13:30;10.32;;;4.95;;
80653;SDS011;70020;45.524;10.240;2023-06-14T13:15:56;6.80;;;3.80;;
80653;SDS011;70020;45.524;10.240;2023-06-14T13:18:21;14.60;;;4.45;;
80653;SDS011;70020;45.524;10.240;2023-06-14T13:20:47;5.97;;;3.90;;
80653;SDS011;70020;45.524;10.240;2023-06-14T13:23:13;7.28;;;3.67;;
80653;SDS011;70020;45.524;10.240;2023-06-14T13:25:40;4.93;;;3.78;;
80653;SDS011;70020;45.524;10.240;2023-06-14T13:28:06;6.22;;;4.07;;
80653;SDS011;70020;45.524;10.240;2023-06-14T13:30:32;6.10;;;4.47;;
80653;SDS011;70020;45.524;10.240;2023-06-14T13:32:58;8.63;;;4.75;;
80653;SDS011;70020;45.524;10.240;2023-06-14T13:35:25;6.85;;;4.70;;
80653;SDS011;70020;45.524;10.240;2023-06-14T13:37:51;5.82;;;4.60;;
80653;SDS011;70020;45.524;10.240;2023-06-14T13:40:16;8.05;;;4.57;;
80653;SDS011;70020;45.524;10.240;2023-06-14T13:42:42;8.40;;;4.70;;
80653;SDS011;70020;45.524;10.240;2023-06-14T13:45:10;4.78;;;4.15;;
80653;SDS011;70020;45.524;10.240;2023-06-14T13:47:36;6.55;;;4.80;;
80653;SDS011;70020;45.524;10.240;2023-06-14T13:50:03;5.35;;;4.00;;
80653;SDS011;70020;45.524;10.240;2023-06-14T13:52:29;7.90;;;4.18;;
80653;SDS011;70020;45.524;10.240;2023-06-14T13:54:54;9.10;;;3.33;;
80653;SDS011;70020;45.524;10.240;2023-06-14T13:57:20;5.57;;;3.78;;
80653;SDS011;70020;45.524;10.240;2023-06-14T13:59:46;7.90;;;3.95;;
80653;SDS011;70020;45.524;10.240;2023-06-14T14:02:11;6.43;;;3.70;;
80653;SDS011;70020;45.524;10.240;2023-06-14T14:04:38;7.38;;;3.80;;
80653;SDS011;70020;45.524;10.240;2023-06-14T14:07:04;5.38;;;3.33;;
80653;SDS011;70020;45.524;10.240;2023-06-14T14:09:31;8.15;;;3.22;;
80653;SDS011;70020;45.524;10.240;2023-06-14T14:12:00;6.95;;;3.53;;
80653;SDS011;70020;45.524;10.240;2023-06-14T14:14:31;5.88;;;4.00;;
80653;SDS011;70020;45.524;10.240;2023-06-14T14:16:57;7.97;;;3.72;;
80653;SDS011;70020;45.524;10.240;2023-06-14T14:19:23;8.52;;;4.25;;
80653;SDS011;70020;45.524;10.240;2023-06-14T14:21:49;6.80;;;4.10;;
80653;SDS011;70020;45.524;10.240;2023-06-14T14:24:15;5.45;;;4.10;;
80653;SDS011;70020;45.524;10.240;2023-06-14T14:26:41;4.78;;;3.38;;
80653;SDS011;70020;45.524;10.240;2023-06-14T14:29:07;5.72;;;3.50;;
80653;SDS011;70020;45.524;10.240;2023-06-14T14:31:33;6.18;;;3.65;;
80653;SDS011;70020;45.524;10.240;2023-06-14T14:33:59;8.18;;;3.95;;
80653;SDS011;70020;45.524;10.240;2023-06-14T14:36:24;5.07;;;3.83;;
80653;SDS011;70020;45.524;10.240;2023-06-14T14:38:50;5.38;;;3.83;;
80653;SDS011;70020;45.524;10.240;2023-06-14T14:41:16;5.95;;;3.60;;
80653;SDS011;70020;45.524;10.240;2023-06-14T14:43:42;4.80;;;3.67;;
80653;SDS011;70020;45.524;10.240;2023-06-14T14:46:08;6.20;;;3.45;;
80653;SDS011;70020;45.524;10.240;2023-06-14T14:48:34;8.65;;;3.60;;
80653;SDS011;70020;45.524;10.240;2023-06-14T14:51:00;4.88;;;3.00;;
80653;SDS011;70020;45.524;10.240;2023-06-14T14:53:26;4.32;;;3.33;;
80653;SDS011;70020;45.524;10.240;2023-06-14T14:55:51;7.38;;;3.85;;
80653;SDS011;70020;45.524;10.240;2023-06-14T14:58:17;8.82;;;4.18;;
80653;SDS011;70020;45.524;10.240;2023-06-14T15:00:43;6.10;;;3.90;;
80653;SDS011;70020;45.524;10.240;2023-06-14T15:03:09;5.50;;;3.58;;
80653;SDS011;70020;45.524;10.240;2023-06-14T15:05:35;8.43;;;3.90;;
80653;SDS011;70020;45.524;10.240;2023-06-14T15:08:02;6.82;;;4.05;;
80653;SDS011;70020;45.524;10.240;2023-06-14T15:10:27;7.10;;;3.85;;
80653;SDS011;70020;45.524;10.240;2023-06-14T15:12:53;9.60;;;4.00;;
80653;SDS011;70020;45.524;10.240;2023-06-14T15:15:19;5.68;;;4.15;;
80653;SDS011;70020;45.524;10.240;2023-06-14T15:17:44;10.18;;;5.63;;
80653;SDS011;70020;45.524;10.240;2023-06-14T15:20:11;9.77;;;5.50;;
80653;SDS011;70020;45.524;10.240;2023-06-14T15:22:38;8.90;;;4.25;;
80653;SDS011;70020;45.524;10.240;2023-06-14T15:25:04;9.77;;;5.15;;
80653;SDS011;70020;45.524;10.240;2023-06-14T15:27:30;8.40;;;5.50;;
80653;SDS011;70020;45.524;10.240;2023-06-14T15:29:56;6.90;;;5.10;;
80653;SDS011;70020;45.524;10.240;2023-06-14T15:32:22;9.40;;;5.57;;
80653;SDS011;70020;45.524;10.240;2023-06-14T15:34:47;7.20;;;5.13;;
80653;SDS011;70020;45.524;10.240;2023-06-14T15:37:14;13.02;;;6.20;;
80653;SDS011;70020;45.524;10.240;2023-06-14T15:39:40;8.73;;;5.40;;
80653;SDS011;70020;45.524;10.240;2023-06-14T15:42:05;9.85;;;5.68;;
80653;SDS011;70020;45.524;10.240;2023-06-14T15:44:32;10.70;;;7.18;;
80653;SDS011;70020;45.524;10.240;2023-06-14T15:46:59;10.00;;;5.78;;
80653;SDS011;70020;45.524;10.240;2023-06-14T15:49:25;10.82;;;6.00;;
80653;SDS011;70020;45.524;10.240;2023-06-14T15:51:51;9.07;;;5.57;;
80653;SDS011;70020;45.524;10.240;2023-06-14T15:54:17;10.65;;;4.97;;
80653;SDS011;70020;45.524;10.240;2023-06-14T15:56:43;10.02;;;4.70;;
80653;SDS011;70020;45.524;10.240;2023-06-14T15:59:09;4.60;;;4.10;;
80653;SDS011;70020;45.524;10.240;2023-06-14T16:01:36;6.38;;;3.00;;
80653;SDS011;70020;45.524;10.240;2023-06-14T16:04:02;6.30;;;3.10;;
80653;SDS011;70020;45.524;10.240;2023-06-14T16:06:27;4.32;;;2.90;;
80653;SDS011;70020;45.524;10.240;2023-06-14T16:08:54;6.20;;;2.95;;
80653;SDS011;70020;45.524;10.240;2023-06-14T16:11:19;4.72;;;3.13;;
80653;SDS011;70020;45.524;10.240;2023-06-14T16:13:45;4.57;;;3.25;;
80653;SDS011;70020;45.524;10.240;2023-06-14T16:16:11;7.40;;;3.40;;
80653;SDS011;70020;45.524;10.240;2023-06-14T16:18:37;6.95;;;3.53;;
80653;SDS011;70020;45.524;10.240;2023-06-14T16:21:03;5.63;;;3.00;;